createdAt,value
2018-03-15T00:01:08.193Z,8.17
2018-03-15T00:03:16.295Z,7.97
2018-03-15T00:05:18.733Z,6.80
2018-03-15T00:07:21.198Z,7.70
2018-03-15T00:09:23.669Z,7.30
2018-03-15T00:11:26.148Z,7.40
2018-03-15T00:13:29.354Z,8.17
2018-03-15T00:15:31.809Z,7.83
2018-03-15T00:17:34.263Z,7.90
2018-03-15T00:19:36.706Z,8.40
2018-03-15T00:21:39.199Z,7.90
2018-03-15T00:23:41.648Z,7.63
2018-03-15T00:25:44.113Z,8.60
2018-03-15T00:27:46.652Z,7.90
2018-03-15T00:29:49.157Z,8.65
2018-03-15T00:31:51.639Z,8.50
2018-03-15T00:33:54.068Z,8.50
2018-03-15T00:35:56.488Z,8.33
2018-03-15T00:37:59.014Z,8.17
2018-03-15T00:40:01.455Z,8.63
2018-03-15T00:42:03.993Z,7.80
2018-03-15T00:44:06.578Z,8.83
2018-03-15T00:46:09.038Z,8.30
2018-03-15T00:48:11.568Z,8.20
2018-03-15T00:50:14.063Z,8.47
2018-03-15T00:52:16.509Z,8.77
2018-03-15T00:54:18.987Z,8.53
2018-03-15T00:56:21.433Z,8.10
2018-03-15T00:58:23.938Z,9.87
2018-03-15T01:00:26.436Z,8.80
2018-03-15T01:02:28.852Z,8.70
2018-03-15T01:04:31.325Z,8.50
2018-03-15T01:06:33.775Z,9.40
2018-03-15T01:08:36.211Z,10.20
2018-03-15T01:10:38.679Z,9.73
2018-03-15T01:12:41.137Z,10.47
2018-03-15T01:14:43.608Z,9.63
2018-03-15T01:16:46.125Z,10.80
2018-03-15T01:18:48.670Z,8.70
2018-03-15T01:20:51.108Z,8.70
2018-03-15T01:22:53.674Z,9.13
2018-03-15T01:24:56.193Z,9.60
2018-03-15T01:26:58.694Z,10.82
2018-03-15T01:29:01.163Z,11.23
2018-03-15T01:31:03.989Z,11.17
2018-03-15T01:33:06.464Z,10.90
2018-03-15T01:35:08.970Z,12.50
2018-03-15T01:37:11.509Z,11.90
2018-03-15T01:39:14.009Z,11.40
2018-03-15T01:41:16.496Z,11.13
2018-03-15T01:43:18.945Z,9.63
2018-03-15T01:45:21.585Z,11.10
2018-03-15T01:47:24.079Z,9.70
2018-03-15T01:49:26.576Z,10.77
2018-03-15T01:51:29.170Z,10.70
2018-03-15T01:53:31.600Z,9.60
2018-03-15T01:55:34.160Z,11.52
2018-03-15T01:57:36.744Z,10.20
2018-03-15T01:59:39.194Z,10.75
2018-03-15T02:01:41.712Z,10.85
2018-03-15T02:03:44.317Z,10.48
2018-03-15T02:05:46.769Z,11.57
2018-03-15T02:07:49.271Z,10.88
2018-03-15T02:09:51.709Z,11.02
2018-03-15T02:11:54.200Z,11.07
2018-03-15T02:13:56.740Z,10.55
2018-03-15T02:15:59.211Z,11.48
2018-03-15T02:18:01.709Z,12.27
2018-03-15T02:20:04.164Z,12.05
2018-03-15T02:22:06.702Z,9.95
2018-03-15T02:24:09.191Z,10.60
2018-03-15T02:26:11.754Z,10.38
2018-03-15T02:28:14.205Z,10.23
2018-03-15T02:30:16.745Z,10.52
2018-03-15T02:32:19.194Z,11.00
2018-03-15T02:34:21.735Z,10.75
2018-03-15T02:36:24.220Z,12.07
2018-03-15T02:38:26.657Z,10.50
2018-03-15T02:40:29.210Z,10.20
2018-03-15T02:42:31.704Z,10.60
2018-03-15T02:44:34.204Z,10.88
2018-03-15T02:46:36.795Z,10.65
2018-03-15T02:48:39.365Z,10.40
2018-03-15T02:50:41.931Z,10.60
2018-03-15T02:52:44.391Z,10.88
2018-03-15T02:54:46.862Z,10.63
2018-03-15T02:56:49.331Z,9.70
2018-03-15T02:58:51.783Z,10.93
2018-03-15T03:00:54.235Z,11.00
2018-03-15T03:02:56.732Z,10.57
2018-03-15T03:04:59.232Z,10.25
2018-03-15T03:07:01.723Z,10.00
2018-03-15T03:09:04.213Z,11.13
2018-03-15T03:11:06.671Z,10.68
2018-03-15T03:13:09.136Z,9.95
2018-03-15T03:15:11.588Z,9.10
2018-03-15T03:17:14.000Z,9.67
2018-03-15T03:19:16.681Z,10.40
2018-03-15T03:21:19.175Z,9.98
2018-03-15T03:23:21.633Z,9.70
2018-03-15T03:25:24.158Z,10.38
2018-03-15T03:27:26.656Z,9.50
2018-03-15T03:29:29.102Z,9.55
2018-03-15T03:31:31.641Z,9.15
2018-03-15T03:33:34.131Z,9.13
2018-03-15T03:35:36.578Z,9.43
2018-03-15T03:37:39.077Z,10.18
2018-03-15T03:39:41.505Z,8.13
2018-03-15T03:41:44.006Z,9.02
2018-03-15T03:43:46.480Z,9.30
2018-03-15T03:45:48.950Z,9.68
2018-03-15T03:47:51.446Z,10.82
2018-03-15T03:49:53.903Z,9.57
2018-03-15T03:51:56.383Z,10.38
2018-03-15T03:53:58.858Z,9.77
2018-03-15T03:56:01.328Z,9.30
2018-03-15T03:58:03.875Z,8.80
2018-03-15T04:00:06.353Z,9.32
2018-03-15T04:02:08.918Z,9.67
2018-03-15T04:04:11.367Z,9.48
2018-03-15T04:06:13.887Z,9.65
2018-03-15T04:08:16.340Z,9.20
2018-03-15T04:10:18.773Z,9.20
2018-03-15T04:12:21.253Z,9.68
2018-03-15T04:14:23.771Z,9.90
2018-03-15T04:16:26.266Z,10.03
2018-03-15T04:18:28.683Z,9.07
2018-03-15T04:20:31.133Z,9.70
2018-03-15T04:22:33.661Z,9.57
2018-03-15T04:24:36.123Z,10.45
2018-03-15T04:26:38.560Z,9.60
2018-03-15T04:28:41.133Z,10.47
2018-03-15T04:30:43.597Z,9.50
2018-03-15T04:32:46.132Z,9.38
2018-03-15T04:34:48.722Z,9.57
2018-03-15T04:36:51.218Z,10.03
2018-03-15T04:38:53.687Z,10.73
2018-03-15T04:40:56.137Z,10.30
2018-03-15T04:42:58.616Z,10.30
2018-03-15T04:45:01.093Z,9.90
2018-03-15T04:47:03.605Z,10.00
2018-03-15T04:49:06.070Z,10.88
2018-03-15T04:51:08.511Z,10.80
2018-03-15T04:53:11.006Z,9.90
2018-03-15T04:55:13.453Z,10.55
2018-03-15T04:57:15.892Z,9.80
2018-03-15T04:59:18.382Z,10.37
2018-03-15T05:01:20.863Z,9.77
2018-03-15T05:03:23.367Z,10.00
2018-03-15T05:05:25.780Z,10.00
2018-03-15T05:07:28.232Z,11.00
2018-03-15T05:09:30.727Z,9.27
2018-03-15T05:11:33.183Z,10.60
2018-03-15T05:13:35.681Z,9.87
2018-03-15T05:15:38.173Z,10.50
2018-03-15T05:17:40.642Z,11.17
2018-03-15T05:19:43.118Z,10.93
2018-03-15T05:21:45.558Z,11.43
2018-03-15T05:23:48.044Z,10.55
2018-03-15T05:25:50.589Z,10.87
2018-03-15T05:27:53.105Z,10.73
2018-03-15T05:29:55.572Z,10.13
2018-03-15T05:32:00.002Z,10.83
2018-03-15T05:34:02.512Z,10.67
2018-03-15T05:36:05.051Z,11.60
2018-03-15T05:38:07.503Z,11.12
2018-03-15T05:40:10.019Z,12.63
2018-03-15T05:42:12.593Z,12.00
2018-03-15T05:44:15.043Z,12.10
2018-03-15T05:46:17.493Z,12.37
2018-03-15T05:48:19.961Z,11.48
2018-03-15T05:50:22.454Z,13.10
2018-03-15T05:52:24.967Z,12.10
2018-03-15T05:54:27.434Z,11.57
2018-03-15T05:56:29.948Z,13.50
2018-03-15T05:58:32.472Z,11.90
2018-03-15T06:00:34.966Z,12.98
2018-03-15T06:02:37.568Z,12.67
2018-03-15T06:04:40.182Z,12.68
2018-03-15T06:06:42.648Z,13.37
2018-03-15T06:08:45.084Z,12.50
2018-03-15T06:10:47.586Z,11.37
2018-03-15T06:12:50.049Z,12.23
2018-03-15T06:14:52.518Z,11.77
2018-03-15T06:16:55.009Z,12.40
2018-03-15T06:18:57.538Z,13.10
2018-03-15T06:20:59.967Z,12.30
2018-03-15T06:23:02.488Z,13.33
2018-03-15T06:25:04.928Z,11.20
2018-03-15T06:27:07.457Z,12.97
2018-03-15T06:29:09.935Z,12.50
2018-03-15T06:31:12.469Z,11.40
2018-03-15T06:33:14.989Z,12.97
2018-03-15T06:35:17.459Z,12.67
2018-03-15T06:37:20.000Z,12.17
2018-03-15T06:39:22.521Z,13.07
2018-03-15T06:41:24.992Z,12.77
2018-03-15T06:43:27.448Z,13.10
2018-03-15T06:45:29.927Z,12.70
2018-03-15T06:47:32.420Z,12.20
2018-03-15T06:49:34.899Z,12.67
2018-03-15T06:51:37.371Z,12.67
2018-03-15T06:53:39.885Z,13.13
2018-03-15T06:55:42.334Z,12.52
2018-03-15T06:57:44.809Z,13.25
2018-03-15T06:59:47.369Z,12.13
2018-03-15T07:01:49.804Z,12.70
2018-03-15T07:03:52.263Z,13.30
2018-03-15T07:05:54.822Z,12.47
2018-03-15T07:07:57.278Z,12.40
2018-03-15T07:09:59.838Z,12.40
2018-03-15T07:12:02.432Z,12.23
2018-03-15T07:14:04.920Z,13.47
2018-03-15T07:16:07.415Z,13.67
2018-03-15T07:18:10.012Z,13.60
2018-03-15T07:20:12.474Z,12.87
2018-03-15T07:22:14.903Z,13.50
2018-03-15T07:24:17.383Z,13.07
2018-03-15T07:26:19.885Z,15.13
2018-03-15T07:28:22.327Z,14.90
2018-03-15T07:30:24.812Z,13.00
2018-03-15T07:32:27.350Z,12.67
2018-03-15T07:34:29.850Z,13.37
2018-03-15T07:36:32.310Z,12.37
2018-03-15T07:38:34.848Z,13.57
2018-03-15T07:40:37.350Z,13.90
2018-03-15T07:42:39.816Z,13.57
2018-03-15T07:44:42.363Z,13.53
2018-03-15T07:46:44.910Z,13.60
2018-03-15T07:48:47.410Z,13.70
2018-03-15T07:50:49.942Z,13.90
2018-03-15T07:52:52.498Z,14.20
2018-03-15T07:54:54.988Z,13.87
2018-03-15T07:56:57.445Z,14.13
2018-03-15T07:58:59.978Z,13.90
2018-03-15T08:01:02.445Z,13.90
2018-03-15T08:03:04.914Z,14.33
2018-03-15T08:05:07.455Z,14.63
2018-03-15T08:07:09.948Z,15.50
2018-03-15T08:09:12.414Z,14.13
2018-03-15T08:11:14.929Z,12.53
2018-03-15T08:13:17.430Z,14.13
2018-03-15T08:15:19.920Z,15.50
2018-03-15T08:17:22.339Z,11.57
2018-03-15T08:19:24.915Z,13.77
2018-03-15T08:21:27.381Z,12.90
2018-03-15T08:23:29.825Z,13.90
2018-03-15T08:25:32.271Z,13.80
2018-03-15T08:27:34.788Z,13.40
2018-03-15T08:29:37.214Z,11.87
2018-03-15T08:31:39.670Z,14.33
2018-03-15T08:33:42.211Z,13.07
2018-03-15T08:35:44.685Z,12.73
2018-03-15T08:37:47.240Z,13.80
2018-03-15T08:39:49.696Z,14.20
2018-03-15T08:41:52.229Z,14.07
2018-03-15T08:43:54.720Z,14.10
2018-03-15T08:45:57.211Z,13.37
2018-03-15T08:47:59.701Z,14.80
2018-03-15T08:50:02.184Z,13.70
2018-03-15T08:52:04.625Z,12.77
2018-03-15T08:54:07.150Z,13.17
2018-03-15T08:56:09.684Z,14.03
2018-03-15T08:58:12.142Z,13.00
2018-03-15T09:00:14.717Z,14.47
2018-03-15T09:02:17.130Z,13.63
2018-03-15T09:04:19.593Z,13.30
2018-03-15T09:06:22.084Z,14.17
2018-03-15T09:08:24.753Z,13.53
2018-03-15T09:10:27.165Z,12.93
2018-03-15T09:12:29.626Z,12.40
2018-03-15T09:14:32.076Z,13.73
2018-03-15T09:16:34.579Z,13.40
2018-03-15T09:18:37.101Z,12.87
2018-03-15T09:20:39.545Z,12.87
2018-03-15T09:22:42.091Z,14.60
2018-03-15T09:24:44.591Z,13.77
2018-03-15T09:26:47.176Z,13.20
2018-03-15T09:28:49.638Z,14.13
2018-03-15T09:30:52.163Z,13.40
2018-03-15T09:32:54.641Z,13.23
2018-03-15T09:34:57.174Z,13.07
2018-03-15T09:36:59.610Z,14.80
2018-03-15T09:39:02.242Z,13.50
2018-03-15T09:41:04.937Z,11.30
2018-03-15T09:43:07.420Z,13.60
2018-03-15T09:45:09.921Z,13.37
2018-03-15T09:47:12.450Z,13.57
2018-03-15T09:49:14.940Z,14.17
2018-03-15T09:51:17.437Z,13.90
2018-03-15T09:53:19.997Z,12.90
2018-03-15T09:55:22.496Z,13.57
2018-03-15T09:57:24.987Z,13.90
2018-03-15T09:59:27.467Z,13.87
2018-03-15T10:01:30.075Z,13.63
2018-03-15T10:03:32.666Z,13.63
2018-03-15T10:05:35.192Z,13.30
2018-03-15T10:07:37.717Z,13.63
2018-03-15T10:09:40.212Z,14.30
2018-03-15T10:11:42.668Z,15.10
2018-03-15T10:13:45.221Z,13.73
2018-03-15T10:15:47.721Z,14.57
2018-03-15T10:17:50.222Z,14.70
2018-03-15T10:19:52.681Z,14.43
2018-03-15T10:21:55.136Z,14.70
2018-03-15T10:23:57.647Z,14.60
2018-03-15T10:26:00.194Z,14.13
2018-03-15T10:28:02.792Z,14.27
2018-03-15T10:30:05.391Z,15.33
2018-03-15T10:32:07.896Z,14.80
2018-03-15T10:34:10.346Z,13.67
2018-03-15T10:36:12.872Z,14.83
2018-03-15T10:38:15.288Z,13.73
2018-03-15T10:40:17.784Z,14.83
2018-03-15T10:42:20.317Z,14.00
2018-03-15T10:44:22.842Z,14.23
2018-03-15T10:46:25.352Z,16.23
2018-03-15T10:48:27.834Z,15.90
2018-03-15T10:50:30.421Z,15.27
2018-03-15T10:52:32.977Z,15.90
2018-03-15T10:54:35.484Z,16.87
2018-03-15T10:56:38.010Z,15.30
2018-03-15T10:58:40.466Z,14.80
2018-03-15T11:00:48.701Z,15.90
2018-03-15T11:02:51.236Z,14.67
2018-03-15T11:04:59.187Z,15.20
2018-03-15T11:07:16.051Z,16.17
2018-03-15T11:09:23.351Z,14.37
2018-03-15T11:11:25.846Z,15.90
2018-03-15T11:13:28.391Z,14.13
2018-03-15T11:15:30.857Z,16.00
2018-03-15T11:17:33.442Z,14.63
2018-03-15T11:19:36.026Z,15.83
2018-03-15T11:21:38.622Z,14.60
2018-03-15T11:23:41.122Z,15.60
2018-03-15T11:25:43.577Z,15.93
2018-03-15T11:27:46.096Z,14.43
2018-03-15T11:29:48.555Z,16.00
2018-03-15T11:31:51.037Z,16.53
2018-03-15T11:33:53.551Z,15.03
2018-03-15T11:35:55.988Z,15.20
2018-03-15T11:37:58.483Z,15.17
2018-03-15T11:40:00.983Z,15.47
2018-03-15T11:42:03.432Z,16.20
2018-03-15T11:44:05.948Z,17.73
2018-03-15T11:46:08.573Z,17.60
2018-03-15T11:48:11.141Z,16.13
2018-03-15T11:50:13.623Z,16.70
2018-03-15T11:52:16.221Z,17.80
2018-03-15T11:54:18.705Z,15.17
2018-03-15T11:56:21.303Z,15.70
2018-03-15T11:58:23.922Z,16.57
2018-03-15T12:00:26.431Z,16.03
2018-03-15T12:02:28.892Z,17.10
2018-03-15T12:04:31.487Z,16.80
2018-03-15T12:06:33.967Z,17.63
2018-03-15T12:08:36.496Z,14.80
2018-03-15T12:10:39.047Z,16.33
2018-03-15T12:12:41.527Z,15.37
2018-03-15T12:14:44.021Z,16.20
2018-03-15T12:16:46.516Z,15.67
2018-03-15T12:18:49.038Z,16.53
2018-03-15T12:20:51.536Z,16.17
2018-03-15T12:22:54.022Z,15.70
2018-03-15T12:24:56.518Z,16.07
2018-03-15T12:26:59.032Z,17.07
2018-03-15T12:29:01.472Z,16.87
2018-03-15T12:31:03.927Z,15.43
2018-03-15T12:33:06.418Z,15.70
2018-03-15T12:35:08.989Z,14.83
2018-03-15T12:37:11.461Z,15.17
2018-03-15T12:39:13.958Z,15.77
2018-03-15T12:41:16.482Z,14.60
2018-03-15T12:43:18.959Z,15.07
2018-03-15T12:45:21.468Z,16.13
2018-03-15T12:47:23.947Z,15.57
2018-03-15T12:49:26.437Z,16.20
2018-03-15T12:51:28.933Z,14.40
2018-03-15T12:53:31.526Z,16.33
2018-03-15T12:55:35.854Z,15.83
2018-03-15T12:57:38.354Z,15.80
2018-03-15T12:59:40.952Z,16.83
2018-03-15T13:01:43.438Z,17.03
2018-03-15T13:03:46.037Z,17.33
2018-03-15T13:05:48.537Z,17.40
2018-03-15T13:07:51.009Z,17.40
2018-03-15T13:09:53.484Z,17.67
2018-03-15T13:11:56.016Z,16.10
2018-03-15T13:13:58.504Z,16.40
2018-03-15T13:16:01.015Z,17.23
2018-03-15T13:18:03.495Z,17.57
2018-03-15T13:20:06.033Z,17.80
2018-03-15T13:22:08.498Z,17.23
2018-03-15T13:24:10.984Z,17.90
2018-03-15T13:26:13.485Z,17.50
2018-03-15T13:28:15.970Z,17.77
2018-03-15T13:30:18.427Z,18.43
2018-03-15T13:32:20.947Z,17.10
2018-03-15T13:34:23.559Z,17.57
2018-03-15T13:36:26.037Z,16.27
2018-03-15T13:38:28.498Z,17.80
2018-03-15T13:40:30.932Z,17.40
2018-03-15T13:42:33.422Z,17.27
2018-03-15T13:44:35.907Z,18.23
2018-03-15T13:46:38.389Z,18.70
2018-03-15T13:48:40.884Z,18.43
2018-03-15T13:50:43.357Z,18.80
2018-03-15T13:52:45.983Z,17.83
2018-03-15T13:54:48.465Z,17.90
2018-03-15T13:56:50.994Z,18.40
2018-03-15T13:58:53.560Z,19.97
2018-03-15T14:00:56.024Z,19.10
2018-03-15T14:02:58.580Z,18.63
2018-03-15T14:05:01.039Z,17.90
2018-03-15T14:07:03.635Z,19.00
2018-03-15T14:09:06.051Z,18.93
2018-03-15T14:11:08.516Z,21.27
2018-03-15T14:13:11.110Z,20.57
2018-03-15T14:15:13.572Z,19.33
2018-03-15T14:17:16.005Z,20.90
2018-03-15T14:19:18.608Z,19.97
2018-03-15T14:21:21.138Z,19.10
2018-03-15T14:23:23.615Z,18.60
2018-03-15T14:25:26.109Z,20.40
2018-03-15T14:27:28.543Z,19.80
2018-03-15T14:29:31.133Z,20.77
2018-03-15T14:31:33.629Z,20.10
2018-03-15T14:33:36.194Z,20.20
2018-03-15T14:35:38.668Z,19.73
2018-03-15T14:37:41.269Z,20.03
2018-03-15T14:39:43.710Z,19.40
2018-03-15T14:41:46.288Z,19.73
2018-03-15T14:43:48.761Z,19.20
2018-03-15T14:45:51.205Z,19.97
2018-03-15T14:47:53.721Z,19.77
2018-03-15T14:49:56.262Z,19.20
2018-03-15T14:51:58.738Z,21.47
2018-03-15T14:54:01.216Z,19.87
2018-03-15T14:56:03.744Z,21.10
2018-03-15T14:58:06.193Z,20.00
2018-03-15T15:00:08.673Z,20.03
2018-03-15T15:02:11.126Z,20.30
2018-03-15T15:04:13.549Z,21.37
2018-03-15T15:06:16.192Z,22.10
2018-03-15T15:08:18.654Z,20.30
2018-03-15T15:10:21.116Z,22.50
2018-03-15T15:12:23.616Z,21.03
2018-03-15T15:14:26.134Z,22.40
2018-03-15T15:16:28.601Z,22.27
2018-03-15T15:18:31.095Z,21.90
2018-03-15T15:20:33.601Z,20.90
2018-03-15T15:22:36.071Z,22.00
2018-03-15T15:24:38.579Z,22.13
2018-03-15T15:26:41.079Z,19.70
2018-03-15T15:28:43.561Z,21.20
2018-03-15T15:30:46.092Z,22.47
2018-03-15T15:32:48.610Z,21.30
2018-03-15T15:34:51.069Z,22.03
2018-03-15T15:36:53.639Z,21.80
2018-03-15T15:38:56.196Z,21.00
2018-03-15T15:40:58.688Z,20.43
2018-03-15T15:43:01.159Z,21.57
2018-03-15T15:45:03.725Z,21.33
2018-03-15T15:47:06.196Z,21.37
2018-03-15T15:49:08.691Z,21.90
2018-03-15T15:51:11.285Z,20.37
2018-03-15T15:53:13.881Z,21.60
2018-03-15T15:55:16.450Z,22.20
2018-03-15T15:57:19.037Z,22.60
2018-03-15T15:59:21.520Z,20.60
2018-03-15T16:01:24.041Z,21.50
2018-03-15T16:03:26.591Z,23.40
2018-03-15T16:05:29.190Z,22.03
2018-03-15T16:07:31.710Z,21.77
2018-03-15T16:09:34.301Z,21.77
2018-03-15T16:11:36.824Z,22.00
2018-03-15T16:13:39.335Z,23.53
2018-03-15T16:15:41.825Z,22.40
2018-03-15T16:17:44.349Z,22.40
2018-03-15T16:19:46.809Z,23.40
2018-03-15T16:21:49.282Z,23.00
2018-03-15T16:23:51.807Z,22.17
2018-03-15T16:25:54.286Z,22.77
2018-03-15T16:27:56.859Z,23.00
2018-03-15T16:29:59.378Z,22.67
2018-03-15T16:32:01.889Z,24.90
2018-03-15T16:34:04.327Z,23.80
2018-03-15T16:36:06.817Z,23.30
2018-03-15T16:38:09.342Z,22.03
2018-03-15T16:40:11.811Z,23.00
2018-03-15T16:42:14.333Z,22.10
2018-03-15T16:44:16.799Z,23.00
2018-03-15T16:46:19.315Z,22.30
2018-03-15T16:48:21.915Z,24.47
2018-03-15T16:50:24.406Z,21.57
2018-03-15T16:52:26.874Z,23.40
2018-03-15T16:54:29.447Z,22.57
2018-03-15T16:56:31.927Z,23.07
2018-03-15T16:58:34.488Z,24.03
2018-03-15T17:00:37.084Z,23.90
2018-03-15T17:02:39.606Z,22.47
2018-03-15T17:04:42.090Z,22.07
2018-03-15T17:06:44.665Z,22.47
2018-03-15T17:08:47.258Z,23.60
2018-03-15T17:10:49.718Z,22.97
2018-03-15T17:12:52.347Z,22.97
2018-03-15T17:14:54.842Z,22.83
2018-03-15T17:16:58.297Z,22.90
2018-03-15T17:19:00.812Z,23.60
2018-03-15T17:21:03.297Z,23.80
2018-03-15T17:23:05.745Z,23.40
2018-03-15T17:25:08.272Z,21.80
2018-03-15T17:27:10.728Z,21.77
2018-03-15T17:29:13.246Z,21.97
2018-03-15T17:31:15.701Z,22.57
2018-03-15T17:33:18.153Z,22.50
2018-03-15T17:35:20.626Z,22.17
2018-03-15T17:37:23.182Z,21.83
2018-03-15T17:39:25.739Z,21.37
2018-03-15T17:41:28.372Z,22.60
2018-03-15T17:43:30.870Z,21.30
2018-03-15T17:45:33.360Z,19.27
2018-03-15T17:47:35.869Z,21.20
2018-03-15T17:49:38.475Z,21.43
2018-03-15T17:51:40.902Z,22.20
2018-03-15T17:53:43.417Z,19.40
2018-03-15T17:55:46.030Z,21.17
2018-03-15T17:57:48.644Z,21.67
2018-03-15T17:59:51.226Z,19.50
2018-03-15T18:01:53.690Z,21.37
2018-03-15T18:03:56.230Z,20.10
2018-03-15T18:05:58.804Z,22.10
2018-03-15T18:08:01.378Z,21.10
2018-03-15T18:10:03.993Z,20.80
2018-03-15T18:12:06.548Z,19.93
2018-03-15T18:14:09.120Z,22.37
2018-03-15T18:16:11.662Z,22.00
2018-03-15T18:18:14.168Z,22.10
2018-03-15T18:20:16.756Z,22.47
2018-03-15T18:22:19.387Z,21.47
2018-03-15T18:24:21.957Z,23.03
2018-03-15T18:26:24.441Z,21.30
2018-03-15T18:28:26.946Z,21.87
2018-03-15T18:30:29.448Z,22.40
2018-03-15T18:32:31.892Z,22.83
2018-03-15T18:34:34.392Z,24.20
2018-03-15T18:36:36.987Z,23.63
2018-03-15T18:38:39.555Z,22.60
2018-03-15T18:40:42.068Z,23.30
2018-03-15T18:42:44.810Z,24.20
2018-03-15T18:44:47.404Z,23.00
2018-03-15T18:46:49.955Z,23.10
2018-03-15T18:48:52.701Z,23.50
2018-03-15T18:50:55.288Z,22.43
2018-03-15T18:52:57.827Z,24.27
2018-03-15T18:55:00.323Z,25.20
2018-03-15T18:57:02.802Z,22.50
2018-03-15T18:59:05.397Z,23.80
2018-03-15T19:01:12.614Z,22.93
2018-03-15T19:03:10.334Z,19.43
2018-03-15T19:05:12.846Z,23.50
2018-03-15T19:07:15.448Z,23.43
2018-03-15T19:09:17.942Z,23.80
2018-03-15T19:11:20.452Z,23.23
2018-03-15T19:13:23.122Z,23.53
2018-03-15T19:15:25.601Z,23.30
2018-03-15T19:17:28.318Z,25.70
2018-03-15T19:19:30.811Z,23.37
2018-03-15T19:21:33.411Z,23.27
2018-03-15T19:23:36.004Z,22.83
2018-03-15T19:25:38.501Z,23.80
2018-03-15T19:27:41.094Z,23.00
2018-03-15T19:29:43.623Z,23.57
2018-03-15T19:31:46.130Z,25.03
2018-03-15T19:33:48.623Z,23.33
2018-03-15T19:35:51.094Z,24.40
2018-03-15T19:37:53.612Z,24.53
2018-03-15T19:39:56.147Z,22.30
2018-03-15T19:41:58.716Z,23.20
2018-03-15T19:44:01.284Z,25.33
2018-03-15T19:46:03.795Z,24.50
2018-03-15T19:48:06.272Z,24.40
2018-03-15T19:50:08.842Z,25.00
2018-03-15T19:52:11.329Z,24.87
2018-03-15T19:54:13.853Z,24.07
2018-03-15T19:56:16.327Z,23.00
2018-03-15T19:58:18.892Z,23.97
2018-03-15T20:00:21.367Z,24.67
2018-03-15T20:02:23.876Z,24.70
2018-03-15T20:04:26.296Z,24.60
2018-03-15T20:06:28.828Z,23.30
2018-03-15T20:08:31.284Z,24.70
2018-03-15T20:10:33.804Z,23.93
2018-03-15T20:12:36.279Z,23.43
2018-03-15T20:14:38.833Z,21.10
2018-03-15T20:16:41.438Z,24.57
2018-03-15T20:18:44.028Z,23.57
2018-03-15T20:20:46.812Z,23.07
2018-03-15T20:25:30.515Z,22.10
2018-03-15T20:27:38.599Z,24.10
2018-03-15T20:29:41.314Z,21.27
2018-03-15T20:31:43.755Z,24.10
2018-03-15T20:33:51.841Z,23.10
2018-03-15T20:35:54.312Z,24.07
2018-03-15T20:37:56.778Z,21.77
2018-03-15T20:40:04.792Z,24.13
2018-03-15T20:42:07.362Z,24.83
2018-03-15T20:44:09.959Z,24.17
2018-03-15T20:46:17.962Z,26.33
2018-03-15T20:48:41.213Z,25.37
2018-03-15T20:50:43.802Z,23.80
2018-03-15T20:52:46.336Z,25.73
2018-03-15T20:54:48.785Z,22.67
2018-03-15T20:56:51.280Z,24.07
2018-03-15T20:58:53.885Z,25.63
2018-03-15T21:00:56.349Z,25.80
2018-03-15T21:02:58.979Z,25.40
2018-03-15T21:05:01.495Z,24.17
2018-03-15T21:07:03.990Z,25.83
2018-03-15T21:09:06.433Z,24.97
2018-03-15T21:11:08.949Z,26.50
2018-03-15T21:13:11.477Z,25.80
2018-03-15T21:15:13.999Z,27.30
2018-03-15T21:17:16.475Z,26.50
2018-03-15T21:19:19.025Z,26.40
2018-03-15T21:21:21.500Z,25.53
2018-03-15T21:23:23.999Z,25.17
2018-03-15T21:25:26.775Z,27.70
2018-03-15T21:27:29.254Z,27.53
2018-03-15T21:29:31.789Z,27.63
2018-03-15T21:31:34.236Z,27.60
2018-03-15T21:33:36.724Z,26.97
2018-03-15T21:35:39.231Z,27.63
2018-03-15T21:37:41.695Z,27.90
2018-03-15T21:39:44.178Z,27.60
2018-03-15T21:41:46.666Z,26.30
2018-03-15T21:43:49.146Z,26.80
2018-03-15T21:45:51.609Z,28.60
2018-03-15T21:47:54.141Z,25.97
2018-03-15T21:49:56.690Z,27.90
2018-03-15T21:51:59.167Z,28.20
2018-03-15T21:54:01.672Z,26.97
2018-03-15T21:56:04.145Z,28.80
2018-03-15T21:58:06.640Z,27.50
2018-03-15T22:00:09.154Z,29.47
2018-03-15T22:02:11.674Z,29.10
2018-03-15T22:04:14.125Z,28.13
2018-03-15T22:06:16.649Z,29.10
2018-03-15T22:08:19.260Z,30.37
2018-03-15T22:10:21.756Z,29.90
2018-03-15T22:12:24.263Z,28.33
2018-03-15T22:14:26.782Z,29.73
2018-03-15T22:16:29.335Z,31.90
2018-03-15T22:18:31.823Z,30.17
2018-03-15T22:20:34.314Z,29.23
2018-03-15T22:22:36.756Z,29.77
2018-03-15T22:24:39.254Z,32.23
2018-03-15T22:26:41.716Z,29.77
2018-03-15T22:28:44.188Z,31.10
2018-03-15T22:30:46.775Z,31.40
2018-03-15T22:32:49.230Z,31.37
2018-03-15T22:34:51.872Z,31.60
2018-03-15T22:36:54.433Z,31.90
2018-03-15T22:38:56.935Z,32.43
2018-03-15T22:40:59.422Z,31.87
2018-03-15T22:43:01.890Z,32.60
2018-03-15T22:45:04.449Z,33.87
2018-03-15T22:47:06.963Z,31.20
2018-03-15T22:49:09.531Z,32.50
2018-03-15T22:51:12.002Z,31.30
2018-03-15T22:53:14.454Z,33.03
2018-03-15T22:55:16.967Z,30.43
2018-03-15T22:57:19.455Z,30.63
2018-03-15T22:59:22.026Z,31.23
2018-03-15T23:01:24.480Z,32.17
2018-03-15T23:03:27.011Z,33.33
2018-03-15T23:05:29.475Z,31.20
2018-03-15T23:07:31.915Z,31.47
2018-03-15T23:09:34.406Z,31.93
2018-03-15T23:11:36.955Z,34.83
2018-03-15T23:13:39.442Z,34.87
2018-03-15T23:15:41.889Z,34.37
2018-03-15T23:17:44.440Z,32.63
2018-03-15T23:19:46.884Z,33.07
2018-03-15T23:21:49.329Z,34.70
2018-03-15T23:23:51.796Z,33.73
2018-03-15T23:25:54.225Z,32.77
2018-03-15T23:27:56.791Z,34.60
2018-03-15T23:29:59.284Z,33.73
2018-03-15T23:32:01.745Z,35.00
2018-03-15T23:34:04.190Z,33.93
2018-03-15T23:36:06.674Z,36.07
2018-03-15T23:38:09.254Z,35.10
2018-03-15T23:40:11.759Z,34.97
2018-03-15T23:42:14.246Z,32.70
2018-03-15T23:44:16.714Z,36.63
2018-03-15T23:46:19.166Z,34.27
2018-03-15T23:48:21.720Z,35.37
2018-03-15T23:50:24.321Z,34.00
2018-03-15T23:52:26.746Z,34.17
2018-03-15T23:54:29.200Z,33.77
2018-03-15T23:56:31.692Z,33.47
2018-03-15T23:58:34.164Z,36.03
